Date,TemperatureHighF,TemperatureAvgF,TemperatureLowF,DewpointHighF,DewpointAvgF,DewpointLowF,HumidityHigh,HumidityAvg,HumidityLow,PressureMaxIn,PressureMinIn,WindSpeedMaxMPH,WindSpeedAvgMPH,GustSpeedMaxMPH,PrecipitationSumIn
2013-4-1,60,44,32,44,34,15,90,71,45,29.76,29.50,8,2,12,0.39
2013-4-2,38,32,26,19,15,12,63,50,39,29.98,29.71,6,3,17,0.00
2013-4-3,43,34,28,19,15,12,65,47,34,30.12,29.81,6,3,18,0.00
2013-4-4,55,40,27,25,19,15,63,45,28,30.32,29.99,5,2,10,0.00
2013-4-5,58,44,34,30,26,24,72,52,28,29.99,29.69,6,2,14,0.00
2013-4-6,45,36,28,25,14,8,61,42,25,30.38,29.84,9,3,17,0.00
2013-4-7,56,41,25,38,26,13,77,57,34,30.25,29.96,4,2,15,0.00
2013-4-8,65,51,40,40,38,36,88,63,36,30.23,29.88,5,1,9,0.00
2013-4-9,67,55,45,51,43,38,89,65,45,30.10,29.86,7,2,19,0.08
2013-4-10,64,52,45,51,45,41,89,77,59,30.09,29.84,3,1,5,0.35
2013-4-11,54,47,39,46,37,26,91,70,45,30.10,29.80,5,2,8,0.08
2013-4-12,39,36,35,34,33,31,92,87,72,30.09,29.76,5,2,11,0.67
2013-4-13,53,42,34,39,35,32,92,76,55,29.91,29.69,4,2,9,0.16
2013-4-14,49,42,36,38,32,26,88,68,46,30.16,29.85,6,2,13,0.00
2013-4-15,60,44,29,37,31,24,84,62,41,30.37,30.12,4,1,7,0.00
2013-4-16,67,51,37,50,41,31,85,70,47,30.35,30.05,4,2,10,0.00
2013-4-17,65,56,46,51,38,29,87,55,32,30.34,30.04,5,2,9,0.00
2013-4-18,65,50,35,43,34,28,81,56,36,30.39,30.07,4,2,9,0.00
2013-4-19,74,62,52,61,56,43,90,81,59,30.07,29.65,4,2,9,0.00
2013-4-20,64,51,40,61,40,24,91,67,41,30.10,29.62,6,3,13,0.67
2013-4-21,45,35,31,26,22,20,66,57,45,30.40,30.10,5,2,9,0.00